Hovedside
METAR-TAF:

METAR-TAF

Lufthavner :

Sørkjosen, Norge

Sørkjosen lufthavn

breddegrad: 69-47N, lengdegrad: 020-58E, høyde over havet: 0 m

Gjeldene værobservasjon

Denne rapporten ble laget for 2 timer og 28 minutter siden, klokken 17:50 UTC
Vind 5 kt fra Nord
Temperatur 4°C
Luftfuktighet 81%
Trykk 1011 hPa
Sikt 10 km eller mer
Få skyer i en høyde av 1000 ft
Spredte skyer i en høyde av 1600 ft
Brutte skyer i en høyde av 2200 ft
lett regn

METAR: ENSR 281750Z 30007KT 9999 -RA FEW010 SCT016 BKN022 04/01 Q1011 WIND 1119FT 01005KT

Tid: 22:18 (20:18 UTC)


TAF: fraværende

Værobservasjoner og værvarsel for over 4000 flyplasser (METAR- og TAF-rapporter).

Tilgjengelige stasjoner er representert av de røde og gule prikkene på kartet.

Hold musepekeren over prikken for å se navnet på stasjonen.

Klikk så for å se værobservasjoner og -varsler.

For å forandre kartet kan du klikke på den grønne knappen med svart kryss for å zoome inn, på den grønne knappen med strek for å zoome ut, eller på de grønne pilene for å se tilstøtende kart.


METAR-TAF: